sensor_id;sensor_type;location;lat;lon;timestamp;P1;durP1;ratioP1;P2;durP2;ratioP2
11269;SDS011;5692;48.956;9.200;2022-10-22T00:00:50;184.25;;;175.43;;
11269;SDS011;5692;48.956;9.200;2022-10-22T00:03:22;185.18;;;176.27;;
11269;SDS011;5692;48.956;9.200;2022-10-22T00:05:52;185.27;;;176.38;;
11269;SDS011;5692;48.956;9.200;2022-10-22T00:08:24;175.73;;;167.32;;
11269;SDS011;5692;48.956;9.200;2022-10-22T00:10:51;186.45;;;177.50;;
11269;SDS011;5692;48.956;9.200;2022-10-22T00:13:17;189.82;;;180.75;;
11269;SDS011;5692;48.956;9.200;2022-10-22T00:15:50;181.27;;;172.60;;
11269;SDS011;5692;48.956;9.200;2022-10-22T00:18:24;177.65;;;169.15;;
11269;SDS011;5692;48.956;9.200;2022-10-22T00:20:50;185.95;;;177.05;;
11269;SDS011;5692;48.956;9.200;2022-10-22T00:23:19;183.82;;;175.02;;
11269;SDS011;5692;48.956;9.200;2022-10-22T00:25:46;185.15;;;176.25;;
11269;SDS011;5692;48.956;9.200;2022-10-22T00:28:12;180.40;;;171.75;;
11269;SDS011;5692;48.956;9.200;2022-10-22T00:30:39;198.60;;;189.10;;
11269;SDS011;5692;48.956;9.200;2022-10-22T00:33:06;179.80;;;171.20;;
11269;SDS011;5692;48.956;9.200;2022-10-22T00:35:32;189.45;;;180.40;;
11269;SDS011;5692;48.956;9.200;2022-10-22T00:38:01;197.13;;;187.70;;
11269;SDS011;5692;48.956;9.200;2022-10-22T00:40:27;192.98;;;183.75;;
11269;SDS011;5692;48.956;9.200;2022-10-22T00:42:57;186.05;;;177.15;;
11269;SDS011;5692;48.956;9.200;2022-10-22T00:45:35;176.27;;;167.82;;
11269;SDS011;5692;48.956;9.200;2022-10-22T00:48:11;179.07;;;170.48;;
11269;SDS011;5692;48.956;9.200;2022-10-22T00:50:42;193.00;;;183.75;;
11269;SDS011;5692;48.956;9.200;2022-10-22T00:53:16;182.75;;;174.00;;
11269;SDS011;5692;48.956;9.200;2022-10-22T00:55:43;183.05;;;174.30;;
11269;SDS011;5692;48.956;9.200;2022-10-22T00:58:11;172.85;;;164.55;;
11269;SDS011;5692;48.956;9.200;2022-10-22T01:00:38;191.98;;;182.77;;
11269;SDS011;5692;48.956;9.200;2022-10-22T01:03:04;190.93;;;181.80;;
11269;SDS011;5692;48.956;9.200;2022-10-22T01:05:32;206.43;;;196.55;;
11269;SDS011;5692;48.956;9.200;2022-10-22T01:08:14;185.25;;;176.35;;
11269;SDS011;5692;48.956;9.200;2022-10-22T01:10:50;178.30;;;169.80;;
11269;SDS011;5692;48.956;9.200;2022-10-22T01:13:24;179.48;;;170.88;;
11269;SDS011;5692;48.956;9.200;2022-10-22T01:24:05;175.35;;;166.95;;
11269;SDS011;5692;48.956;9.200;2022-10-22T01:27:19;187.05;;;178.10;;
11269;SDS011;5692;48.956;9.200;2022-10-22T01:31:58;169.95;;;161.82;;
11269;SDS011;5692;48.956;9.200;2022-10-22T01:34:28;169.77;;;161.65;;
11269;SDS011;5692;48.956;9.200;2022-10-22T01:37:02;171.32;;;163.13;;
11269;SDS011;5692;48.956;9.200;2022-10-22T01:39:28;175.52;;;167.13;;
11269;SDS011;5692;48.956;9.200;2022-10-22T01:41:58;180.70;;;172.05;;
11269;SDS011;5692;48.956;9.200;2022-10-22T01:44:35;173.07;;;164.77;;
11269;SDS011;5692;48.956;9.200;2022-10-22T01:55:05;172.52;;;164.25;;
11269;SDS011;5692;48.956;9.200;2022-10-22T01:57:46;184.10;;;175.30;;
11269;SDS011;5692;48.956;9.200;2022-10-22T02:00:17;181.15;;;172.48;;
11269;SDS011;5692;48.956;9.200;2022-10-22T02:05:29;184.45;;;175.60;;
11269;SDS011;5692;48.956;9.200;2022-10-22T02:10:39;182.35;;;173.65;;
11269;SDS011;5692;48.956;9.200;2022-10-22T02:13:07;180.57;;;171.95;;
11269;SDS011;5692;48.956;9.200;2022-10-22T02:15:34;176.93;;;168.43;;
11269;SDS011;5692;48.956;9.200;2022-10-22T02:18:11;187.48;;;178.48;;
11269;SDS011;5692;48.956;9.200;2022-10-22T02:20:39;192.00;;;182.80;;
11269;SDS011;5692;48.956;9.200;2022-10-22T02:23:09;190.00;;;180.93;;
11269;SDS011;5692;48.956;9.200;2022-10-22T02:25:40;185.20;;;176.32;;
11269;SDS011;5692;48.956;9.200;2022-10-22T02:30:58;181.18;;;172.48;;
11269;SDS011;5692;48.956;9.200;2022-10-22T02:35:54;181.23;;;172.52;;
11269;SDS011;5692;48.956;9.200;2022-10-22T02:38:28;191.45;;;182.30;;
11269;SDS011;5692;48.956;9.200;2022-10-22T02:40:58;184.38;;;175.57;;
11269;SDS011;5692;48.956;9.200;2022-10-22T02:43:27;181.07;;;172.40;;
11269;SDS011;5692;48.956;9.200;2022-10-22T02:46:00;175.65;;;167.25;;
11269;SDS011;5692;48.956;9.200;2022-10-22T02:48:36;182.77;;;174.00;;
11269;SDS011;5692;48.956;9.200;2022-10-22T02:51:05;181.27;;;172.57;;
11269;SDS011;5692;48.956;9.200;2022-10-22T02:53:33;182.82;;;174.07;;
11269;SDS011;5692;48.956;9.200;2022-10-22T02:56:01;180.35;;;171.70;;
11269;SDS011;5692;48.956;9.200;2022-10-22T02:58:27;184.77;;;175.93;;
11269;SDS011;5692;48.956;9.200;2022-10-22T03:01:04;177.65;;;169.15;;
11269;SDS011;5692;48.956;9.200;2022-10-22T03:03:32;189.75;;;180.65;;
11269;SDS011;5692;48.956;9.200;2022-10-22T03:06:01;185.93;;;177.02;;
11269;SDS011;5692;48.956;9.200;2022-10-22T03:08:36;181.35;;;172.65;;
11269;SDS011;5692;48.956;9.200;2022-10-22T03:11:03;181.20;;;172.50;;
11269;SDS011;5692;48.956;9.200;2022-10-22T03:13:29;180.02;;;171.43;;
11269;SDS011;5692;48.956;9.200;2022-10-22T03:15:55;193.63;;;184.35;;
11269;SDS011;5692;48.956;9.200;2022-10-22T03:18:21;190.43;;;181.30;;
11269;SDS011;5692;48.956;9.200;2022-10-22T03:20:58;174.73;;;166.38;;
11269;SDS011;5692;48.956;9.200;2022-10-22T03:23:25;187.32;;;178.38;;
11269;SDS011;5692;48.956;9.200;2022-10-22T03:25:51;182.75;;;174.00;;
11269;SDS011;5692;48.956;9.200;2022-10-22T03:28:18;183.15;;;174.38;;
11269;SDS011;5692;48.956;9.200;2022-10-22T03:30:47;177.80;;;169.27;;
11269;SDS011;5692;48.956;9.200;2022-10-22T03:33:13;188.25;;;179.25;;
11269;SDS011;5692;48.956;9.200;2022-10-22T03:35:41;185.57;;;176.68;;
11269;SDS011;5692;48.956;9.200;2022-10-22T03:38:12;175.60;;;167.20;;
11269;SDS011;5692;48.956;9.200;2022-10-22T03:40:40;171.10;;;162.90;;
11269;SDS011;5692;48.956;9.200;2022-10-22T03:43:07;183.35;;;174.55;;
11269;SDS011;5692;48.956;9.200;2022-10-22T03:45:33;185.50;;;176.63;;
11269;SDS011;5692;48.956;9.200;2022-10-22T03:47:59;197.00;;;187.60;;
11269;SDS011;5692;48.956;9.200;2022-10-22T03:50:25;186.90;;;177.93;;
11269;SDS011;5692;48.956;9.200;2022-10-22T03:52:51;181.38;;;172.68;;
11269;SDS011;5692;48.956;9.200;2022-10-22T03:55:18;177.20;;;168.70;;
11269;SDS011;5692;48.956;9.200;2022-10-22T03:57:45;167.02;;;159.02;;
11269;SDS011;5692;48.956;9.200;2022-10-22T04:00:12;168.90;;;160.80;;
11269;SDS011;5692;48.956;9.200;2022-10-22T04:02:41;170.98;;;162.77;;
11269;SDS011;5692;48.956;9.200;2022-10-22T04:05:07;208.05;;;198.10;;
11269;SDS011;5692;48.956;9.200;2022-10-22T04:07:33;190.57;;;181.48;;
11269;SDS011;5692;48.956;9.200;2022-10-22T04:10:02;190.75;;;181.65;;
11269;SDS011;5692;48.956;9.200;2022-10-22T04:12:29;185.75;;;176.85;;
11269;SDS011;5692;48.956;9.200;2022-10-22T04:14:55;190.63;;;181.50;;
11269;SDS011;5692;48.956;9.200;2022-10-22T04:17:22;184.18;;;175.38;;
11269;SDS011;5692;48.956;9.200;2022-10-22T04:19:53;187.45;;;178.48;;
11269;SDS011;5692;48.956;9.200;2022-10-22T04:22:20;183.50;;;174.73;;
11269;SDS011;5692;48.956;9.200;2022-10-22T04:24:49;179.70;;;171.10;;
11269;SDS011;5692;48.956;9.200;2022-10-22T04:27:15;183.00;;;174.23;;
11269;SDS011;5692;48.956;9.200;2022-10-22T04:29:41;181.37;;;172.67;;
11269;SDS011;5692;48.956;9.200;2022-10-22T04:32:11;156.32;;;148.82;;
11269;SDS011;5692;48.956;9.200;2022-10-22T04:34:38;176.77;;;168.27;;
11269;SDS011;5692;48.956;9.200;2022-10-22T04:37:07;165.90;;;157.93;;
11269;SDS011;5692;48.956;9.200;2022-10-22T04:39:36;157.45;;;149.90;;
11269;SDS011;5692;48.956;9.200;2022-10-22T04:42:09;170.10;;;161.95;;
11269;SDS011;5692;48.956;9.200;2022-10-22T04:44:38;164.80;;;156.90;;
11269;SDS011;5692;48.956;9.200;2022-10-22T04:47:07;170.23;;;162.05;;
11269;SDS011;5692;48.956;9.200;2022-10-22T04:49:36;178.77;;;170.23;;
11269;SDS011;5692;48.956;9.200;2022-10-22T04:52:02;161.73;;;153.98;;
11269;SDS011;5692;48.956;9.200;2022-10-22T04:54:28;160.73;;;153.02;;
11269;SDS011;5692;48.956;9.200;2022-10-22T04:56:57;169.43;;;161.32;;
11269;SDS011;5692;48.956;9.200;2022-10-22T04:59:31;172.75;;;164.48;;
11269;SDS011;5692;48.956;9.200;2022-10-22T05:02:06;163.52;;;155.73;;
11269;SDS011;5692;48.956;9.200;2022-10-22T05:04:43;153.00;;;145.68;;
11269;SDS011;5692;48.956;9.200;2022-10-22T05:07:09;162.38;;;154.60;;
11269;SDS011;5692;48.956;9.200;2022-10-22T05:09:38;170.15;;;162.00;;
11269;SDS011;5692;48.956;9.200;2022-10-22T05:12:06;164.82;;;156.93;;
11269;SDS011;5692;48.956;9.200;2022-10-22T05:14:36;170.75;;;162.55;;
11269;SDS011;5692;48.956;9.200;2022-10-22T05:17:08;157.45;;;149.90;;
11269;SDS011;5692;48.956;9.200;2022-10-22T05:19:35;178.85;;;170.25;;
11269;SDS011;5692;48.956;9.200;2022-10-22T05:22:01;170.60;;;162.40;;
11269;SDS011;5692;48.956;9.200;2022-10-22T05:24:32;168.40;;;160.32;;
11269;SDS011;5692;48.956;9.200;2022-10-22T05:27:02;175.45;;;167.05;;
11269;SDS011;5692;48.956;9.200;2022-10-22T05:29:28;165.40;;;157.48;;
11269;SDS011;5692;48.956;9.200;2022-10-22T05:31:54;172.65;;;164.38;;
11269;SDS011;5692;48.956;9.200;2022-10-22T05:34:21;159.40;;;151.77;;
11269;SDS011;5692;48.956;9.200;2022-10-22T05:36:50;147.80;;;140.73;;
11269;SDS011;5692;48.956;9.200;2022-10-22T05:39:19;166.45;;;158.48;;
11269;SDS011;5692;48.956;9.200;2022-10-22T05:41:45;154.82;;;147.40;;
11269;SDS011;5692;48.956;9.200;2022-10-22T05:44:12;167.47;;;159.43;;
11269;SDS011;5692;48.956;9.200;2022-10-22T05:46:41;162.93;;;155.13;;
11269;SDS011;5692;48.956;9.200;2022-10-22T05:49:11;159.05;;;151.43;;
11269;SDS011;5692;48.956;9.200;2022-10-22T05:51:38;156.38;;;148.88;;
11269;SDS011;5692;48.956;9.200;2022-10-22T05:54:06;166.18;;;158.20;;
11269;SDS011;5692;48.956;9.200;2022-10-22T05:56:33;175.60;;;167.20;;
11269;SDS011;5692;48.956;9.200;2022-10-22T05:59:05;169.65;;;161.50;;
11269;SDS011;5692;48.956;9.200;2022-10-22T06:01:43;170.30;;;162.15;;
11269;SDS011;5692;48.956;9.200;2022-10-22T06:04:10;166.80;;;158.80;;
11269;SDS011;5692;48.956;9.200;2022-10-22T06:06:52;174.50;;;166.15;;
11269;SDS011;5692;48.956;9.200;2022-10-22T06:09:29;163.30;;;155.48;;
11269;SDS011;5692;48.956;9.200;2022-10-22T06:11:56;179.88;;;171.27;;
11269;SDS011;5692;48.956;9.200;2022-10-22T06:14:26;172.30;;;164.05;;
11269;SDS011;5692;48.956;9.200;2022-10-22T06:16:53;176.85;;;168.38;;
11269;SDS011;5692;48.956;9.200;2022-10-22T06:19:20;176.80;;;168.30;;
11269;SDS011;5692;48.956;9.200;2022-10-22T06:21:47;165.00;;;157.07;;
11269;SDS011;5692;48.956;9.200;2022-10-22T06:24:16;164.75;;;156.85;;
11269;SDS011;5692;48.956;9.200;2022-10-22T06:26:42;169.15;;;161.05;;
11269;SDS011;5692;48.956;9.200;2022-10-22T06:29:08;163.65;;;155.82;;
11269;SDS011;5692;48.956;9.200;2022-10-22T06:31:37;159.48;;;151.85;;
11269;SDS011;5692;48.956;9.200;2022-10-22T06:34:04;154.60;;;147.20;;
11269;SDS011;5692;48.956;9.200;2022-10-22T06:36:31;162.88;;;155.07;;
11269;SDS011;5692;48.956;9.200;2022-10-22T06:38:57;161.35;;;153.65;;
11269;SDS011;5692;48.956;9.200;2022-10-22T06:41:25;145.95;;;138.95;;
11269;SDS011;5692;48.956;9.200;2022-10-22T06:43:52;169.18;;;161.07;;
11269;SDS011;5692;48.956;9.200;2022-10-22T06:46:19;159.07;;;151.48;;
11269;SDS011;5692;48.956;9.200;2022-10-22T06:48:52;172.40;;;164.15;;
11269;SDS011;5692;48.956;9.200;2022-10-22T06:51:18;166.95;;;158.95;;
11269;SDS011;5692;48.956;9.200;2022-10-22T06:53:45;166.68;;;158.68;;
11269;SDS011;5692;48.956;9.200;2022-10-22T06:56:12;170.57;;;162.38;;
11269;SDS011;5692;48.956;9.200;2022-10-22T06:58:39;166.70;;;158.73;;
11269;SDS011;5692;48.956;9.200;2022-10-22T07:01:06;179.95;;;171.35;;
11269;SDS011;5692;48.956;9.200;2022-10-22T07:03:32;171.38;;;163.15;;
11269;SDS011;5692;48.956;9.200;2022-10-22T07:06:02;180.15;;;171.52;;
11269;SDS011;5692;48.956;9.200;2022-10-22T07:08:28;178.73;;;170.13;;
11269;SDS011;5692;48.956;9.200;2022-10-22T07:10:55;181.70;;;173.00;;
11269;SDS011;5692;48.956;9.200;2022-10-22T07:13:26;173.32;;;165.02;;
11269;SDS011;5692;48.956;9.200;2022-10-22T07:15:53;175.77;;;167.38;;
11269;SDS011;5692;48.956;9.200;2022-10-22T07:18:19;178.30;;;169.75;;
11269;SDS011;5692;48.956;9.200;2022-10-22T07:20:46;185.93;;;177.02;;
11269;SDS011;5692;48.956;9.200;2022-10-22T07:23:12;167.45;;;159.43;;
11269;SDS011;5692;48.956;9.200;2022-10-22T07:25:39;178.00;;;169.50;;
11269;SDS011;5692;48.956;9.200;2022-10-22T07:28:05;175.73;;;167.32;;
11269;SDS011;5692;48.956;9.200;2022-10-22T07:30:31;176.82;;;168.38;;
11269;SDS011;5692;48.956;9.200;2022-10-22T07:32:57;175.93;;;167.50;;
11269;SDS011;5692;48.956;9.200;2022-10-22T07:35:23;181.73;;;173.03;;
11269;SDS011;5692;48.956;9.200;2022-10-22T07:37:49;179.37;;;170.77;;
11269;SDS011;5692;48.956;9.200;2022-10-22T07:40:15;173.88;;;165.55;;
11269;SDS011;5692;48.956;9.200;2022-10-22T07:42:41;179.10;;;170.50;;
11269;SDS011;5692;48.956;9.200;2022-10-22T07:45:07;190.07;;;180.98;;
11269;SDS011;5692;48.956;9.200;2022-10-22T07:47:33;192.35;;;183.15;;
11269;SDS011;5692;48.956;9.200;2022-10-22T07:49:59;173.13;;;164.82;;
11269;SDS011;5692;48.956;9.200;2022-10-22T07:52:25;162.87;;;155.07;;
11269;SDS011;5692;48.956;9.200;2022-10-22T07:54:54;164.60;;;156.70;;
11269;SDS011;5692;48.956;9.200;2022-10-22T07:57:20;172.70;;;164.40;;
11269;SDS011;5692;48.956;9.200;2022-10-22T07:59:46;167.90;;;159.87;;
11269;SDS011;5692;48.956;9.200;2022-10-22T08:02:12;162.57;;;154.77;;
11269;SDS011;5692;48.956;9.200;2022-10-22T08:04:41;178.88;;;170.27;;
11269;SDS011;5692;48.956;9.200;2022-10-22T08:07:07;191.48;;;182.27;;
11269;SDS011;5692;48.956;9.200;2022-10-22T08:09:34;168.98;;;160.88;;
11269;SDS011;5692;48.956;9.200;2022-10-22T08:12:00;176.65;;;168.15;;
11269;SDS011;5692;48.956;9.200;2022-10-22T08:14:29;186.18;;;177.25;;
11269;SDS011;5692;48.956;9.200;2022-10-22T08:16:57;193.75;;;184.48;;
11269;SDS011;5692;48.956;9.200;2022-10-22T08:19:23;176.60;;;168.15;;
11269;SDS011;5692;48.956;9.200;2022-10-22T08:21:49;187.55;;;178.57;;
11269;SDS011;5692;48.956;9.200;2022-10-22T08:24:15;192.43;;;183.23;;
11269;SDS011;5692;48.956;9.200;2022-10-22T08:26:41;202.43;;;192.75;;
11269;SDS011;5692;48.956;9.200;2022-10-22T08:29:07;196.95;;;187.52;;
11269;SDS011;5692;48.956;9.200;2022-10-22T08:31:33;202.57;;;192.88;;
11269;SDS011;5692;48.956;9.200;2022-10-22T08:33:59;194.77;;;185.48;;
11269;SDS011;5692;48.956;9.200;2022-10-22T08:36:25;206.32;;;196.48;;
11269;SDS011;5692;48.956;9.200;2022-10-22T08:38:52;197.50;;;188.02;;
11269;SDS011;5692;48.956;9.200;2022-10-22T08:41:21;210.88;;;200.77;;
11269;SDS011;5692;48.956;9.200;2022-10-22T08:48:56;225.25;;;214.48;;
11269;SDS011;5692;48.956;9.200;2022-10-22T08:51:27;236.15;;;224.85;;
11269;SDS011;5692;48.956;9.200;2022-10-22T08:56:43;243.63;;;231.98;;
11269;SDS011;5692;48.956;9.200;2022-10-22T09:01:54;248.07;;;236.23;;
11269;SDS011;5692;48.956;9.200;2022-10-22T09:04:39;244.77;;;233.07;;
11269;SDS011;5692;48.956;9.200;2022-10-22T09:07:07;259.60;;;247.20;;
11269;SDS011;5692;48.956;9.200;2022-10-22T09:09:38;249.05;;;237.15;;
11269;SDS011;5692;48.956;9.200;2022-10-22T09:12:05;272.75;;;259.73;;
11269;SDS011;5692;48.956;9.200;2022-10-22T09:14:32;292.73;;;278.73;;
11269;SDS011;5692;48.956;9.200;2022-10-22T09:24:39;304.17;;;289.63;;
11269;SDS011;5692;48.956;9.200;2022-10-22T09:27:17;256.20;;;243.95;;
11269;SDS011;5692;48.956;9.200;2022-10-22T09:29:44;74.53;;;70.93;;
11269;SDS011;5692;48.956;9.200;2022-10-22T09:32:11;215.52;;;205.20;;
11269;SDS011;5692;48.956;9.200;2022-10-22T09:34:37;72.93;;;69.43;;
11269;SDS011;5692;48.956;9.200;2022-10-22T09:37:05;127.28;;;121.18;;
11269;SDS011;5692;48.956;9.200;2022-10-22T09:39:39;183.80;;;175.00;;
11269;SDS011;5692;48.956;9.200;2022-10-22T09:42:06;206.57;;;196.68;;
11269;SDS011;5692;48.956;9.200;2022-10-22T09:44:33;188.80;;;179.80;;
11269;SDS011;5692;48.956;9.200;2022-10-22T09:47:02;177.82;;;169.30;;
11269;SDS011;5692;48.956;9.200;2022-10-22T09:49:29;202.07;;;192.38;;
11269;SDS011;5692;48.956;9.200;2022-10-22T09:51:58;196.60;;;187.20;;
11269;SDS011;5692;48.956;9.200;2022-10-22T09:56:52;181.77;;;173.07;;
11269;SDS011;5692;48.956;9.200;2022-10-22T09:59:26;189.30;;;180.20;;
11269;SDS011;5692;48.956;9.200;2022-10-22T10:04:32;188.20;;;179.20;;
11269;SDS011;5692;48.956;9.200;2022-10-22T10:06:59;197.97;;;188.47;;
11269;SDS011;5692;48.956;9.200;2022-10-22T10:09:25;199.90;;;190.30;;
11269;SDS011;5692;48.956;9.200;2022-10-22T10:12:08;240.30;;;228.80;;
11269;SDS011;5692;48.956;9.200;2022-10-22T10:14:46;224.73;;;214.00;;
11269;SDS011;5692;48.956;9.200;2022-10-22T10:17:36;236.83;;;225.53;;
11269;SDS011;5692;48.956;9.200;2022-10-22T10:22:45;227.87;;;216.97;;
11269;SDS011;5692;48.956;9.200;2022-10-22T10:25:19;222.07;;;211.47;;
11269;SDS011;5692;48.956;9.200;2022-10-22T10:28:03;230.47;;;219.47;;
11269;SDS011;5692;48.956;9.200;2022-10-22T10:30:31;217.10;;;206.70;;
11269;SDS011;5692;48.956;9.200;2022-10-22T10:38:24;254.27;;;242.10;;
11269;SDS011;5692;48.956;9.200;2022-10-22T10:43:49;263.60;;;251.00;;
11269;SDS011;5692;48.956;9.200;2022-10-22T11:07:11;241.53;;;229.97;;
11269;SDS011;5692;48.956;9.200;2022-10-22T11:09:45;241.37;;;229.83;;
11269;SDS011;5692;48.956;9.200;2022-10-22T11:12:17;239.90;;;228.43;;
11269;SDS011;5692;48.956;9.200;2022-10-22T11:14:58;217.10;;;206.70;;
11269;SDS011;5692;48.956;9.200;2022-10-22T11:17:28;220.93;;;210.33;;
11269;SDS011;5692;48.956;9.200;2022-10-22T11:22:49;207.00;;;197.10;;
11269;SDS011;5692;48.956;9.200;2022-10-22T11:30:19;105.83;;;100.73;;
11269;SDS011;5692;48.956;9.200;2022-10-22T11:32:56;150.60;;;143.37;;
11269;SDS011;5692;48.956;9.200;2022-10-22T11:35:25;109.03;;;103.80;;
11269;SDS011;5692;48.956;9.200;2022-10-22T11:37:53;100.97;;;96.10;;
11269;SDS011;5692;48.956;9.200;2022-10-22T11:42:59;133.70;;;127.27;;
11269;SDS011;5692;48.956;9.200;2022-10-22T11:45:29;168.97;;;160.87;;
11269;SDS011;5692;48.956;9.200;2022-10-22T11:58:26;200.97;;;191.37;;
11269;SDS011;5692;48.956;9.200;2022-10-22T12:00:53;212.80;;;202.63;;
11269;SDS011;5692;48.956;9.200;2022-10-22T12:08:27;194.67;;;185.33;;
11269;SDS011;5692;48.956;9.200;2022-10-22T12:13:33;198.23;;;188.73;;
11269;SDS011;5692;48.956;9.200;2022-10-22T12:16:16;186.60;;;177.70;;
11269;SDS011;5692;48.956;9.200;2022-10-22T12:18:44;165.07;;;157.17;;
11269;SDS011;5692;48.956;9.200;2022-10-22T12:21:11;172.60;;;164.33;;
11269;SDS011;5692;48.956;9.200;2022-10-22T12:23:38;201.30;;;191.67;;
11269;SDS011;5692;48.956;9.200;2022-10-22T12:26:04;231.63;;;220.57;;
11269;SDS011;5692;48.956;9.200;2022-10-22T12:28:37;212.73;;;202.57;;
11269;SDS011;5692;48.956;9.200;2022-10-22T12:31:04;218.70;;;208.23;;
11269;SDS011;5692;48.956;9.200;2022-10-22T12:33:33;220.90;;;210.30;;
11269;SDS011;5692;48.956;9.200;2022-10-22T12:35:59;233.17;;;222.00;;
11269;SDS011;5692;48.956;9.200;2022-10-22T12:38:28;220.50;;;209.97;;
11269;SDS011;5692;48.956;9.200;2022-10-22T12:40:54;218.57;;;208.10;;
11269;SDS011;5692;48.956;9.200;2022-10-22T12:43:28;204.33;;;194.57;;
11269;SDS011;5692;48.956;9.200;2022-10-22T12:45:55;209.57;;;199.57;;
11269;SDS011;5692;48.956;9.200;2022-10-22T12:48:28;257.60;;;245.30;;
11269;SDS011;5692;48.956;9.200;2022-10-22T12:50:58;206.60;;;196.70;;
11269;SDS011;5692;48.956;9.200;2022-10-22T12:53:26;6.80;;;4.20;;
11269;SDS011;5692;48.956;9.200;2022-10-22T12:55:53;219.40;;;208.93;;
11269;SDS011;5692;48.956;9.200;2022-10-22T12:58:20;327.50;;;311.87;;
11269;SDS011;5692;48.956;9.200;2022-10-22T13:00:47;313.43;;;298.47;;
11269;SDS011;5692;48.956;9.200;2022-10-22T13:08:42;328.23;;;312.53;;
11269;SDS011;5692;48.956;9.200;2022-10-22T13:11:11;297.87;;;283.63;;
11269;SDS011;5692;48.956;9.200;2022-10-22T13:16:13;307.60;;;292.90;;
11269;SDS011;5692;48.956;9.200;2022-10-22T13:18:39;314.97;;;299.90;;
11269;SDS011;5692;48.956;9.200;2022-10-22T13:21:19;298.70;;;284.42;;
11269;SDS011;5692;48.956;9.200;2022-10-22T13:23:50;305.50;;;290.90;;
11269;SDS011;5692;48.956;9.200;2022-10-22T13:26:37;296.53;;;282.37;;
11269;SDS011;5692;48.956;9.200;2022-10-22T13:29:09;295.97;;;281.83;;
11269;SDS011;5692;48.956;9.200;2022-10-22T13:31:44;282.57;;;269.07;;
11269;SDS011;5692;48.956;9.200;2022-10-22T13:34:11;301.87;;;287.47;;
11269;SDS011;5692;48.956;9.200;2022-10-22T13:36:39;289.90;;;276.00;;
11269;SDS011;5692;48.956;9.200;2022-10-22T13:39:06;281.77;;;268.30;;
11269;SDS011;5692;48.956;9.200;2022-10-22T13:41:37;287.35;;;273.60;;
11269;SDS011;5692;48.956;9.200;2022-10-22T13:44:03;278.48;;;265.17;;
11269;SDS011;5692;48.956;9.200;2022-10-22T13:46:29;297.77;;;283.57;;
11269;SDS011;5692;48.956;9.200;2022-10-22T13:48:55;302.80;;;288.33;;
11269;SDS011;5692;48.956;9.200;2022-10-22T13:51:24;296.67;;;282.48;;
11269;SDS011;5692;48.956;9.200;2022-10-22T13:53:55;294.98;;;280.88;;
11269;SDS011;5692;48.956;9.200;2022-10-22T13:56:21;295.70;;;281.55;;
11269;SDS011;5692;48.956;9.200;2022-10-22T13:58:48;283.13;;;269.58;;
11269;SDS011;5692;48.956;9.200;2022-10-22T14:01:18;278.52;;;265.23;;
11269;SDS011;5692;48.956;9.200;2022-10-22T14:03:44;275.50;;;262.30;;
11269;SDS011;5692;48.956;9.200;2022-10-22T14:06:12;281.95;;;268.48;;
11269;SDS011;5692;48.956;9.200;2022-10-22T14:08:38;271.60;;;258.60;;
11269;SDS011;5692;48.956;9.200;2022-10-22T14:11:04;280.92;;;267.50;;
11269;SDS011;5692;48.956;9.200;2022-10-22T14:13:31;263.55;;;250.95;;
11269;SDS011;5692;48.956;9.200;2022-10-22T14:15:57;269.83;;;256.93;;
11269;SDS011;5692;48.956;9.200;2022-10-22T14:18:24;273.50;;;260.40;;
11269;SDS011;5692;48.956;9.200;2022-10-22T14:20:56;299.10;;;284.80;;
11269;SDS011;5692;48.956;9.200;2022-10-22T14:23:24;269.20;;;256.33;;
11269;SDS011;5692;48.956;9.200;2022-10-22T14:25:51;250.18;;;238.20;;
11269;SDS011;5692;48.956;9.200;2022-10-22T14:28:17;277.90;;;264.63;;
11269;SDS011;5692;48.956;9.200;2022-10-22T14:30:47;280.20;;;266.80;;
11269;SDS011;5692;48.956;9.200;2022-10-22T14:33:17;255.55;;;243.35;;
11269;SDS011;5692;48.956;9.200;2022-10-22T14:35:44;251.60;;;239.57;;
11269;SDS011;5692;48.956;9.200;2022-10-22T14:38:13;260.23;;;247.77;;
11269;SDS011;5692;48.956;9.200;2022-10-22T14:40:39;264.15;;;251.52;;
11269;SDS011;5692;48.956;9.200;2022-10-22T14:43:10;263.85;;;251.25;;
11269;SDS011;5692;48.956;9.200;2022-10-22T14:45:37;262.85;;;250.27;;
11269;SDS011;5692;48.956;9.200;2022-10-22T14:48:03;252.20;;;240.13;;
11269;SDS011;5692;48.956;9.200;2022-10-22T14:50:30;271.65;;;258.65;;
11269;SDS011;5692;48.956;9.200;2022-10-22T14:52:56;266.05;;;253.32;;
11269;SDS011;5692;48.956;9.200;2022-10-22T14:55:23;257.25;;;244.95;;
11269;SDS011;5692;48.956;9.200;2022-10-22T14:57:51;260.77;;;248.32;;
11269;SDS011;5692;48.956;9.200;2022-10-22T15:00:17;268.92;;;256.08;;
11269;SDS011;5692;48.956;9.200;2022-10-22T15:02:44;238.13;;;226.73;;
11269;SDS011;5692;48.956;9.200;2022-10-22T15:05:10;245.48;;;233.77;;
11269;SDS011;5692;48.956;9.200;2022-10-22T15:07:39;237.32;;;225.98;;
11269;SDS011;5692;48.956;9.200;2022-10-22T15:10:05;249.43;;;237.50;;
11269;SDS011;5692;48.956;9.200;2022-10-22T15:12:31;267.48;;;254.68;;
11269;SDS011;5692;48.956;9.200;2022-10-22T15:14:57;271.73;;;258.75;;
11269;SDS011;5692;48.956;9.200;2022-10-22T15:17:26;236.90;;;225.57;;
11269;SDS011;5692;48.956;9.200;2022-10-22T15:19:52;231.93;;;220.82;;
11269;SDS011;5692;48.956;9.200;2022-10-22T15:22:20;255.35;;;243.15;;
11269;SDS011;5692;48.956;9.200;2022-10-22T15:24:46;234.45;;;223.25;;
11269;SDS011;5692;48.956;9.200;2022-10-22T15:27:18;251.70;;;239.65;;
11269;SDS011;5692;48.956;9.200;2022-10-22T15:29:44;249.07;;;237.18;;
11269;SDS011;5692;48.956;9.200;2022-10-22T15:32:11;247.10;;;235.30;;
11269;SDS011;5692;48.956;9.200;2022-10-22T15:34:40;235.18;;;223.93;;
11269;SDS011;5692;48.956;9.200;2022-10-22T15:37:07;233.40;;;222.20;;
11269;SDS011;5692;48.956;9.200;2022-10-22T15:39:34;227.23;;;216.35;;
11269;SDS011;5692;48.956;9.200;2022-10-22T15:42:00;236.32;;;225.02;;
11269;SDS011;5692;48.956;9.200;2022-10-22T15:44:27;250.95;;;238.95;;
11269;SDS011;5692;48.956;9.200;2022-10-22T15:46:54;230.30;;;219.30;;
11269;SDS011;5692;48.956;9.200;2022-10-22T15:49:20;231.40;;;220.30;;
11269;SDS011;5692;48.956;9.200;2022-10-22T15:51:49;223.77;;;213.07;;
11269;SDS011;5692;48.956;9.200;2022-10-22T15:54:16;231.57;;;220.50;;
11269;SDS011;5692;48.956;9.200;2022-10-22T15:56:43;232.23;;;221.13;;
11269;SDS011;5692;48.956;9.200;2022-10-22T15:59:10;228.32;;;217.43;;
11269;SDS011;5692;48.956;9.200;2022-10-22T16:01:36;234.98;;;223.75;;
11269;SDS011;5692;48.956;9.200;2022-10-22T16:04:02;236.10;;;224.80;;
11269;SDS011;5692;48.956;9.200;2022-10-22T16:06:30;236.18;;;224.88;;
11269;SDS011;5692;48.956;9.200;2022-10-22T16:08:57;237.23;;;225.88;;
11269;SDS011;5692;48.956;9.200;2022-10-22T16:11:26;237.50;;;226.13;;
11269;SDS011;5692;48.956;9.200;2022-10-22T16:13:56;240.85;;;229.32;;
11269;SDS011;5692;48.956;9.200;2022-10-22T16:16:22;251.05;;;239.05;;
11269;SDS011;5692;48.956;9.200;2022-10-22T16:18:49;228.85;;;217.93;;